• Join FlightAware (Why Join?)
  • Login
  • US Flag 
09:32AM EDT


 

Airport Tracker/Info


-or-


 

Live Flight TrackerFlight Track Log ✈ SKQ45 ✈ 13-Jun-2013 ✈ KBUY - KPAH

Flight Track Log - Related Links

Times and Time Zones

All times are in EDT time to prevent confusion due to time zone crossing. See the SKQ45 flight status page for this flight to view local times or setup timezone preferences in your user account.

Time Position Orientation Groundspeed Altitude Reporting Facility
EDT Latitude Longitude Course Direction KTS MPH feet Rate Location/Type
08:33PM 36.0703 -79.6717 276° West 103 119 10,500  Level Atlanta Center
08:34PM 36.0758 -79.7100 280° West 108 124 11,800 840 Climbing Atlanta Center
08:35PM 36.1000 -79.8465 270° West  Level FlightAware Approximate
08:35PM 36.0839 -79.7633 281° West 139 160 12,200  Level Atlanta Center
08:36PM 36.1121 -79.9228 282° West  Level FlightAware Approximate
08:36PM 36.0900 -79.8197 278° West 159 183 13,900  Level Atlanta Center
08:37PM 36.1208 -79.9998 276° West  Level FlightAware Approximate
08:37PM 36.0981 -79.8706 281° West 166 191 15,100  Level Atlanta Center
08:38PM 36.1273 -80.0772 276° West  Level FlightAware Approximate
08:38PM 36.1039 -79.9217 278° West 166 191 16,100  Level Atlanta Center
08:39PM 36.1142 -79.9778 283° West 161 185 17,000 900 Climbing Atlanta Center
08:40PM 36.1222 -80.0339 280° West 161 185 18,000 960 Climbing Atlanta Center
08:41PM 36.1306 -80.0953 280° West 166 191 19,000 480 Climbing Atlanta Center
08:42PM 36.1389 -80.1617 279° West 174 200 19,000  Level Atlanta Center
08:43PM 36.1517 -80.2331 283° West 197 227 19,000  Level Atlanta Center
08:44PM 36.1597 -80.2994 279° West 219 252 19,000 360 Level Atlanta Center
08:45PM 36.1703 -80.3683 281° West 219 252 19,800 480 Climbing Atlanta Center
08:46PM 36.1786 -80.4425 278° West 207 238 20,000 60 Climbing Atlanta Center
08:47PM 36.1889 -80.5039 282° West 207 238 20,000  Level Atlanta Center
08:48PM 36.1969 -80.5706 279° West 207 238 20,000  Level Atlanta Center
08:49PM 36.2117 -80.6522 283° West 222 255 20,000  Level Atlanta Center
08:50PM 36.2219 -80.7239 280° West 217 250 20,000  Level Atlanta Center
08:51PM 36.2325 -80.8006 280° West 217 250 20,000  Level Atlanta Center
08:52PM 36.2428 -80.8722 280° West 217 250 20,000  Level Atlanta Center
08:53PM 36.2531 -80.9492 279° West 222 255 20,000  Level Atlanta Center
08:54PM 36.2633 -81.0261 279° West 222 255 20,000  Level Atlanta Center
08:55PM 36.2756 -81.1028 281° West 222 255 20,000  Level Atlanta Center
08:56PM 36.2858 -81.1847 279° West 227 261 20,000  Level Atlanta Center
08:57PM 36.2981 -81.2642 281° West 227 261 20,000  Level Atlanta Center
08:58PM 36.3081 -81.3411 279° West 233 268 20,000  Level Atlanta Center
08:59PM 36.3161 -81.4183 277° West 233 268 20,000  Level Atlanta Center
09:00PM 36.3258 -81.4925 279° West 233 268 20,000  Level Atlanta Center
09:01PM 36.3381 -81.5694 281° West 233 268 20,000  Level Atlanta Center
09:02PM 36.3478 -81.6467 279° West 233 268 20,000  Level Atlanta Center
09:03PM 36.3575 -81.7236 279° West 233 268 20,000  Level Atlanta Center
09:04PM 36.3672 -81.7956 280° West 226 260 20,000  Level Atlanta Center
09:05PM 36.3769 -81.8700 279° West 221 254 20,000  Level Atlanta Center
09:06PM 36.3844 -81.9422 277° West 221 254 20,000  Level Atlanta Center
09:07PM 36.3919 -82.0167 277° West 221 254 20,000  Level Atlanta Center
09:08PM 36.4036 -82.0886 281° West 216 249 20,000  Level Atlanta Center
09:09PM 36.4233 -82.1578 290° West 216 249 20,000  Level Atlanta Center
09:10PM 36.4431 -82.2167 293° West 216 249 20,000  Level Atlanta Center
09:11PM 36.4650 -82.2833 292° West 211 243 20,000  Level Atlanta Center
09:12PM 36.4867 -82.3525 291° West 211 243 20,000  Level Atlanta Center
09:13PM 36.5064 -82.4167 291° West 211 243 20,000  Level Atlanta Center
09:14PM 36.5281 -82.4833 292° West 206 237 20,000  Level Atlanta Center
09:15PM 36.5478 -82.5478 291° West 206 237 20,000  Level Atlanta Center
09:16PM 36.5692 -82.6144 292° West 206 237 20,000  Level Atlanta Center
09:17PM 36.6042 -82.7214 292° West 201 231 20,000  Level Indianapolis Center
09:18PM 36.6264 -82.7889 292° West 206 237 20,000  Level Indianapolis Center
09:19PM 36.6467 -82.8561 291° West 207 238 20,000  Level Indianapolis Center
09:20PM 36.6692 -82.9253 292° West 212 244 20,000  Level Indianapolis Center
09:22PM 36.6911 -82.9950 291° West 214 246 20,000  Level Indianapolis Center
09:23PM 36.7128 -83.0639 291° West 212 244 20,000  Level Indianapolis Center
09:24PM 36.7342 -83.1339 291° West 214 246 20,000  Level Indianapolis Center
09:25PM 36.7553 -83.2033 291° West 213 245 20,000  Level Indianapolis Center
09:26PM 36.7761 -83.2692 292° West 207 238 20,000  Level Indianapolis Center
09:27PM 36.8006 -83.3481 291° West 207 238 20,000  Level Indianapolis Center
09:28PM 36.8208 -83.4139 291° West 204 235 20,000  Level Indianapolis Center
09:29PM 36.8408 -83.4797 291° West 202 232 20,000  Level Indianapolis Center
09:30PM 36.8619 -83.5464 292° West 205 236 20,000  Level Indianapolis Center
09:31PM 36.8819 -83.6136 290° West 206 237 20,000  Level Indianapolis Center
09:32PM 36.9022 -83.6803 291° West 206 237 20,000  Level Indianapolis Center
09:33PM 36.9233 -83.7461 292° West 205 236 20,000  Level Indianapolis Center
09:34PM 36.9464 -83.8228 291° West 203 234 20,000  Level Indianapolis Center
09:35PM 36.9664 -83.8889 291° West 202 232 20,000  Level Indianapolis Center
09:36PM 36.9867 -83.9553 291° West 203 234 20,000  Level Indianapolis Center
09:37PM 37.0058 -84.0222 290° West 205 236 20,000  Level Indianapolis Center
09:38PM 37.0256 -84.0889 290° West 205 236 20,000  Level Indianapolis Center
09:39PM 37.0342 -84.1600 279° West 214 246 20,000  Level Indianapolis Center
09:40PM 37.0367 -84.2481 272° West 215 247 20,000  Level Indianapolis Center
09:41PM 37.0378 -84.3239 271° West 217 250 20,000  Level Indianapolis Center
09:42PM 37.0381 -84.3992 270° West 217 250 20,000  Level Indianapolis Center
09:43PM 37.0406 -84.4744 272° West 218 251 20,000  Level Indianapolis Center
09:44PM 37.0419 -84.5506 271° West 218 251 20,000  Level Indianapolis Center
09:45PM 37.0442 -84.6264 272° West 218 251 20,000  Level Indianapolis Center
09:46PM 37.0458 -84.7019 272° West 217 250 20,000  Level Indianapolis Center
09:47PM 37.0469 -84.7908 271° West 218 251 20,000  Level Indianapolis Center
09:48PM 37.0481 -84.8669 271° West 219 252 20,000  Level Indianapolis Center
09:49PM 37.0503 -84.9444 272° West 223 257 20,000  Level Indianapolis Center
09:50PM 37.0514 -85.0225 271° West 224 258 20,000  Level Indianapolis Center
09:51PM 37.0525 -85.1006 271° West 225 259 20,000  Level Indianapolis Center
09:52PM 37.0553 -85.1786 273° West 224 258 20,000  Level Indianapolis Center
09:53PM 37.0561 -85.2692 271° West 223 257 20,000  Level Indianapolis Center
09:54PM 37.0586 -85.3492 272° West 227 261 20,000  Level Indianapolis Center
09:55PM 37.0594 -85.4283 271° West 229 264 20,000  Level Indianapolis Center
09:56PM 37.0589 -85.5103 270° West 232 267 20,000  Level Indianapolis Center
09:58PM 37.0606 -85.5911 272° West 232 267 20,000  Level Indianapolis Center
09:59PM 37.0611 -85.6725 271° West 232 267 20,000  Level Indianapolis Center
10:00PM 37.0636 -85.7539 272° West 232 267 20,000  Level Indianapolis Center
10:01PM 37.0633 -85.8331 270° West 228 262 20,000  Level Indianapolis Center
10:02PM 37.0647 -85.9139 271° West 229 264 20,000  Level Indianapolis Center
10:03PM 37.0650 -85.9947 270° West 230 265 20,000  Level Indianapolis Center
10:04PM 37.0658 -86.0758 271° West 230 265 20,000  Level Indianapolis Center
10:05PM 37.0672 -86.1700 271° West 231 266 20,000  Level Indianapolis Center
10:06PM 37.0675 -86.2547 270° West 237 273 20,000  Level Indianapolis Center
10:07PM 37.0683 -86.3344 271° West 231 266 20,000 -240 Level Indianapolis Center
10:08PM 37.0689 -86.4169 271° West 234 269 19,600 -540 Descending Indianapolis Center
10:08PM 37.0683 -86.4494 269° West 233 268 19,300 -900 Descending Memphis Center
10:09PM 37.0689 -86.5378 270° West 253 291 18,500 -840 Descending Memphis Center
10:10PM 37.0697 -86.6314 271° West 258 297 17,700 -780 Descending Memphis Center
10:10PM 37.0706 -86.6572 272° West 264 304 17,500 -600 Descending Memphis Center
10:11PM 37.0700 -86.7144 269° West 263 303 17,100 -720 Descending Memphis Center
10:11PM 37.0689 -86.7511 268° West 264 304 16,800 -840 Descending Memphis Center
10:12PM 37.0706 -86.8028 272° West 263 303 16,300 -840 Descending Memphis Center
10:12PM 37.0694 -86.8394 268° West 263 303 16,000 -720 Descending Memphis Center
10:13PM 37.0711 -86.8939 272° West 268 308 15,600 -840 Descending Memphis Center
10:13PM 37.0700 -86.9356 268° West 264 304 15,200 -840 Descending Memphis Center
10:14PM 37.0694 -86.9850 269° West 268 308 14,800 -840 Descending Memphis Center
10:14PM 37.0706 -87.0317 272° West 268 308 14,400 -840 Descending Memphis Center
10:15PM 37.0719 -87.0811 272° West 274 315 14,000 -840 Descending Memphis Center
10:15PM 37.0708 -87.1228 268° West 268 308 13,600 -840 Descending Memphis Center
10:16PM 37.0722 -87.1719 272° West 269 310 13,200 -840 Descending Memphis Center
10:16PM 37.0692 -87.2189 265° West 268 308 12,800 -840 Descending Memphis Center
10:17PM 37.0725 -87.2656 275° West 274 315 12,400 -720 Descending Memphis Center
10:17PM 37.0714 -87.3072 268° West 268 308 12,100 -840 Descending Memphis Center
10:18PM 37.0706 -87.3592 269° West 274 315 11,600 -900 Descending Memphis Center
10:18PM 37.0697 -87.4061 269° West 268 308 11,200 -840 Descending Memphis Center
10:19PM 37.0708 -87.4503 272° West 266 306 10,800 -840 Descending Memphis Center
10:19PM 37.0678 -87.5025 266° West 268 308 10,400 -840 Descending Memphis Center
10:20PM 37.0711 -87.5594 274° West 266 306 10,000 -780 Descending Memphis Center
10:21PM 37.0689 -87.6453 268° West 286 329 9,200 -840 Descending Memphis Center
10:22PM 37.0708 -87.7389 272° West 281 323 8,400 -840 Descending Memphis Center
10:23PM 37.0686 -87.8300 268° West 276 318 7,600 -840 Descending Memphis Center
10:24PM 37.0706 -87.9261 271° West 274 315 6,800 -840 Descending Memphis Center
10:25PM 37.0786 -88.0169 276° West 274 315 6,000 -840 Descending Memphis Center
10:26PM 37.0883 -88.1022 278° West 263 303 5,200 -840 Descending Memphis Center
10:27PM 37.1003 -88.1853 280° West 256 295 4,400 -600 Descending Memphis Center
10:28PM 37.1100 -88.2631 279° West 237 273 4,000 -240 Descending Memphis Center
10:29PM 37.1194 -88.3331 280° West 224 258 4,000  Level Memphis Center
10:30PM 37.1292 -88.4133 279° West 218 251 4,000  Level Memphis Center
10:31PM 37.1367 -88.4914 277° West 228 262 4,000 -300 Level Memphis Center
10:32PM 37.1483 -88.5769 280° West 239 275 3,500 -300 Descending Memphis Center
10:33PM 37.1597 -88.6572 280° West 239 275 3,500 -300 Level Memphis Center
10:34PM 37.1417 -88.7044 244° Southwest 183 211 3,000 -900 Descending Memphis Center
10:35PM 37.1106 -88.7233 206° Southwest 136 157 1,700 -1,080 Descending Memphis Center
10:36PM 37.0819 -88.7525 219° Southwest 136 157 900 -420 Descending Memphis Center
10:37PM 37.0614 -88.7867 233° Southwest 136 157 900  Level Memphis Center